createdAt,value
2019-05-06T00:01:38.097Z,4.53
2019-05-06T00:04:41.812Z,5.30
2019-05-06T00:07:53.813Z,4.90
2019-05-06T00:10:58.337Z,5.40
2019-05-06T00:14:03.902Z,5.17
2019-05-06T00:17:07.658Z,4.95
2019-05-06T00:20:11.509Z,5.00
2019-05-06T00:23:20.845Z,5.10
2019-05-06T00:26:45.275Z,4.83
2019-05-06T00:29:49.005Z,4.90
2019-05-06T00:32:53.851Z,5.65
2019-05-06T00:36:00.349Z,5.00
2019-05-06T00:39:27.805Z,5.33
2019-05-06T00:42:34.620Z,5.40
2019-05-06T00:45:38.310Z,4.80
2019-05-06T00:48:41.988Z,5.13
2019-05-06T00:51:45.740Z,5.50
2019-05-06T00:54:49.902Z,5.60
2019-05-06T00:57:54.508Z,4.97
2019-05-06T01:00:58.358Z,5.10
2019-05-06T01:04:04.434Z,6.00
2019-05-06T01:07:07.561Z,5.73
2019-05-06T01:10:11.705Z,5.90
2019-05-06T01:13:27.289Z,5.70
2019-05-06T01:16:31.181Z,5.53
2019-05-06T01:19:35.029Z,5.40
2019-05-06T01:22:38.731Z,5.92
2019-05-06T01:25:43.822Z,5.00
2019-05-06T01:28:47.685Z,5.50
2019-05-06T01:31:51.410Z,5.03
2019-05-06T01:34:55.070Z,5.33
2019-05-06T01:38:16.127Z,5.67
2019-05-06T01:41:34.273Z,5.33
2019-05-06T01:44:37.973Z,6.77
2019-05-06T01:47:43.764Z,5.70
2019-05-06T01:50:47.754Z,5.50
2019-05-06T01:53:54.172Z,5.57
2019-05-06T01:56:57.471Z,5.57
2019-05-06T02:00:01.618Z,5.53
2019-05-06T02:03:05.310Z,5.53
2019-05-06T02:06:09.006Z,5.30
2019-05-06T02:09:15.842Z,5.37
2019-05-06T02:12:19.578Z,4.97
2019-05-06T02:15:23.914Z,5.00
2019-05-06T02:18:27.796Z,5.23
2019-05-06T02:21:49.247Z,6.20
2019-05-06T02:24:59.151Z,5.67
2019-05-06T02:28:03.956Z,6.03
2019-05-06T02:31:25.933Z,5.83
2019-05-06T02:34:47.183Z,6.20
2019-05-06T02:37:50.899Z,5.70
2019-05-06T02:40:54.754Z,5.97
2019-05-06T02:43:58.630Z,6.10
2019-05-06T02:47:22.859Z,6.37
2019-05-06T02:50:27.001Z,5.87
2019-05-06T02:53:33.418Z,6.53
2019-05-06T02:56:36.384Z,6.33
2019-05-06T02:59:40.068Z,6.33
2019-05-06T03:02:48.025Z,6.53
2019-05-06T03:05:49.231Z,6.90
2019-05-06T03:08:54.455Z,6.45
2019-05-06T03:11:58.311Z,7.30
2019-05-06T03:15:03.387Z,6.93
2019-05-06T03:18:07.284Z,6.47
2019-05-06T03:21:39.030Z,7.17
2019-05-06T03:24:47.960Z,7.22
2019-05-06T03:27:53.246Z,6.50
2019-05-06T03:30:57.275Z,6.95
2019-05-06T03:34:28.429Z,7.30
2019-05-06T03:37:08.446Z,7.23
2019-05-06T03:40:13.872Z,7.17
2019-05-06T03:43:17.674Z,6.60
2019-05-06T03:46:29.170Z,6.53
2019-05-06T03:49:34.756Z,6.57
2019-05-06T03:52:38.419Z,6.60
2019-05-06T03:55:46.780Z,6.87
2019-05-06T03:58:53.745Z,6.70
2019-05-06T04:01:57.109Z,6.87
2019-05-06T04:05:03.583Z,6.47
2019-05-06T04:08:06.374Z,6.73
2019-05-06T04:11:13.652Z,6.97
2019-05-06T04:14:18.431Z,6.90
2019-05-06T04:17:32.909Z,7.03
2019-05-06T04:20:58.949Z,7.00
2019-05-06T04:24:15.539Z,7.67
2019-05-06T04:27:35.551Z,7.60
2019-05-06T04:30:42.912Z,7.27
2019-05-06T04:34:03.559Z,7.30
2019-05-06T04:36:53.298Z,7.90
2019-05-06T04:39:57.810Z,7.17
2019-05-06T04:43:03.610Z,8.07
2019-05-06T04:46:07.298Z,7.27
2019-05-06T04:49:14.847Z,7.60
2019-05-06T04:52:17.365Z,7.77
2019-05-06T04:55:22.638Z,8.30
2019-05-06T04:58:27.540Z,7.10
2019-05-06T05:01:34.032Z,7.20
2019-05-06T05:04:37.245Z,7.97
2019-05-06T05:07:42.559Z,7.40
2019-05-06T05:10:55.010Z,6.00
2019-05-06T05:14:14.742Z,6.80
2019-05-06T05:17:36.946Z,6.00
2019-05-06T05:20:45.655Z,6.87
2019-05-06T05:23:46.368Z,7.17
2019-05-06T05:26:52.193Z,7.37
2019-05-06T05:29:56.085Z,6.75
2019-05-06T05:33:00.098Z,6.67
2019-05-06T05:36:04.340Z,6.60
2019-05-06T05:39:17.595Z,6.17
2019-05-06T05:42:28.120Z,6.73
2019-05-06T05:45:32.731Z,6.67
2019-05-06T05:48:47.594Z,6.40
2019-05-06T05:51:52.049Z,6.10
2019-05-06T05:54:55.897Z,5.97
2019-05-06T05:57:59.590Z,6.27
2019-05-06T06:01:04.200Z,5.67
2019-05-06T06:04:08.158Z,7.07
2019-05-06T06:07:12.221Z,5.70
2019-05-06T06:10:22.634Z,6.77
2019-05-06T06:13:26.535Z,5.95
2019-05-06T06:16:44.246Z,5.63
2019-05-06T06:20:08.886Z,6.20
2019-05-06T06:23:19.506Z,5.63
2019-05-06T06:26:23.277Z,5.93
2019-05-06T06:29:27.638Z,6.90
2019-05-06T06:32:32.613Z,5.80
2019-05-06T06:36:02.865Z,5.63
2019-05-06T06:39:14.625Z,5.90
2019-05-06T06:42:18.374Z,5.17
2019-05-06T06:45:23.083Z,5.60
2019-05-06T06:48:27.967Z,5.17
2019-05-06T06:51:33.039Z,6.30
2019-05-06T06:54:36.958Z,4.47
2019-05-06T06:58:11.837Z,4.90
2019-05-06T07:01:33.139Z,5.05
2019-05-06T07:04:43.121Z,4.70
2019-05-06T07:07:47.952Z,4.20
2019-05-06T07:10:52.525Z,4.83
2019-05-06T07:13:57.145Z,5.10
2019-05-06T07:17:02.482Z,5.12
2019-05-06T07:20:09.566Z,4.77
2019-05-06T07:23:25.746Z,5.00
2019-05-06T07:26:33.717Z,4.90
2019-05-06T07:29:37.438Z,4.63
2019-05-06T07:32:42.402Z,4.27
2019-05-06T07:35:47.242Z,4.50
2019-05-06T07:38:52.777Z,4.67
2019-05-06T07:42:02.443Z,4.40
2019-05-06T07:45:32.851Z,3.80
2019-05-06T07:48:37.419Z,4.63
2019-05-06T07:51:42.012Z,4.03
2019-05-06T07:54:45.791Z,3.72
2019-05-06T07:57:50.569Z,4.43
2019-05-06T08:00:55.367Z,4.07
2019-05-06T08:03:59.086Z,4.00
2019-05-06T08:07:03.243Z,4.77
2019-05-06T08:10:07.165Z,3.87
2019-05-06T08:13:12.998Z,3.70
2019-05-06T08:16:17.031Z,4.83
2019-05-06T08:19:22.751Z,4.00
2019-05-06T08:22:49.624Z,4.33
2019-05-06T08:26:08.354Z,3.90
2019-05-06T08:28:59.198Z,3.43
2019-05-06T08:32:03.048Z,4.40
2019-05-06T08:35:09.969Z,3.90
2019-05-06T08:38:12.673Z,3.47
2019-05-06T08:41:16.345Z,3.57
2019-05-06T08:44:20.024Z,4.03
2019-05-06T08:47:23.794Z,4.00
2019-05-06T08:50:32.678Z,4.10
2019-05-06T08:53:47.206Z,3.60
2019-05-06T08:56:52.296Z,3.60
2019-05-06T08:59:56.282Z,3.20
2019-05-06T09:02:59.955Z,3.43
2019-05-06T09:06:03.913Z,3.60
2019-05-06T09:09:08.886Z,3.13
2019-05-06T09:12:13.099Z,3.33
2019-05-06T09:15:17.189Z,3.13
2019-05-06T09:18:20.906Z,3.30
2019-05-06T09:21:24.609Z,3.20
2019-05-06T09:24:28.341Z,3.03
2019-05-06T09:27:55.151Z,3.57
2019-05-06T09:31:05.588Z,3.70
2019-05-06T09:34:17.734Z,3.50
2019-05-06T09:37:23.917Z,3.43
2019-05-06T09:40:27.436Z,3.27
2019-05-06T09:43:32.782Z,3.30
2019-05-06T09:46:36.785Z,3.30
2019-05-06T09:49:42.544Z,3.67
2019-05-06T09:52:46.071Z,3.07
2019-05-06T09:56:07.942Z,3.72
2019-05-06T09:59:12.925Z,4.10
2019-05-06T10:02:17.167Z,3.10
2019-05-06T10:05:20.961Z,3.40
2019-05-06T10:08:24.741Z,3.03
2019-05-06T10:11:28.517Z,3.30
2019-05-06T10:14:32.550Z,3.07
2019-05-06T10:17:36.269Z,3.07
2019-05-06T10:20:43.274Z,3.53
2019-05-06T10:23:47.723Z,3.20
2019-05-06T10:26:56.300Z,3.13
2019-05-06T10:30:06.583Z,3.27
2019-05-06T10:33:14.271Z,3.30
2019-05-06T10:36:18.196Z,3.40
2019-05-06T10:39:25.561Z,3.07
2019-05-06T10:42:36.046Z,3.20
2019-05-06T10:45:39.880Z,2.87
2019-05-06T10:48:43.925Z,2.90
2019-05-06T10:51:56.029Z,3.23
2019-05-06T10:54:59.773Z,3.23
2019-05-06T10:58:03.550Z,3.30
2019-05-06T11:01:16.509Z,3.17
2019-05-06T11:04:22.533Z,2.90
2019-05-06T11:07:31.514Z,3.20
2019-05-06T11:10:40.451Z,3.00
2019-05-06T11:13:37.222Z,2.80
2019-05-06T11:16:41.105Z,3.87
2019-05-06T11:19:45.224Z,2.90
2019-05-06T11:22:48.945Z,2.80
2019-05-06T11:25:52.901Z,2.80
2019-05-06T11:29:05.148Z,2.63
2019-05-06T11:32:14.994Z,2.90
2019-05-06T11:35:35.346Z,3.40
2019-05-06T11:38:39.425Z,3.23
2019-05-06T11:42:01.060Z,2.90
2019-05-06T11:44:48.737Z,3.10
2019-05-06T11:47:55.888Z,3.10
2019-05-06T11:51:00.879Z,2.93
2019-05-06T11:54:16.404Z,3.60
2019-05-06T11:57:12.433Z,3.20
2019-05-06T12:00:19.514Z,2.87
2019-05-06T12:03:23.509Z,3.43
2019-05-06T12:06:27.321Z,2.73
2019-05-06T12:09:33.030Z,3.05
2019-05-06T12:12:36.862Z,2.87
2019-05-06T12:15:40.605Z,2.75
2019-05-06T12:18:44.344Z,3.20
2019-05-06T12:21:48.109Z,2.97
2019-05-06T12:24:52.631Z,3.27
2019-05-06T12:27:56.395Z,3.73
2019-05-06T12:31:00.201Z,3.00
2019-05-06T12:34:04.026Z,3.13
2019-05-06T12:37:11.678Z,2.93
2019-05-06T12:40:15.305Z,3.13
2019-05-06T12:43:43.168Z,3.23
2019-05-06T12:46:59.620Z,3.00
2019-05-06T12:50:02.661Z,3.13
2019-05-06T12:53:06.806Z,2.87
2019-05-06T12:56:12.391Z,3.50
2019-05-06T12:59:15.935Z,3.30
2019-05-06T13:02:19.598Z,3.00
2019-05-06T13:05:24.159Z,3.00
2019-05-06T13:08:47.852Z,3.37
2019-05-06T13:11:33.794Z,2.97
2019-05-06T13:14:37.530Z,3.27
2019-05-06T13:17:42.645Z,2.92
2019-05-06T13:20:49.403Z,3.13
2019-05-06T13:24:00.398Z,3.30
2019-05-06T13:27:04.431Z,3.40
2019-05-06T13:30:08.857Z,3.23
2019-05-06T13:33:34.503Z,3.23
2019-05-06T13:36:38.486Z,3.27
2019-05-06T13:39:43.590Z,3.83
2019-05-06T13:43:09.800Z,3.33
2019-05-06T13:46:17.743Z,3.00
2019-05-06T13:49:42.956Z,3.30
2019-05-06T13:52:48.494Z,3.20
2019-05-06T13:55:52.741Z,2.97
2019-05-06T13:58:56.876Z,3.33
2019-05-06T14:02:25.825Z,3.10
2019-05-06T14:05:30.384Z,3.07
2019-05-06T14:08:34.107Z,2.60
2019-05-06T14:11:38.371Z,3.07
2019-05-06T14:14:43.211Z,3.17
2019-05-06T14:17:47.146Z,3.30
2019-05-06T14:20:52.143Z,3.33
2019-05-06T14:23:56.301Z,3.40
2019-05-06T14:27:03.898Z,3.20
2019-05-06T14:30:14.639Z,3.23
2019-05-06T14:33:19.966Z,3.30
2019-05-06T14:36:27.411Z,3.10
2019-05-06T14:39:48.957Z,3.17
2019-05-06T14:42:37.965Z,3.53
2019-05-06T14:45:42.329Z,3.70
2019-05-06T14:48:46.182Z,3.40
2019-05-06T14:51:50.102Z,3.50
2019-05-06T14:55:01.718Z,3.70
2019-05-06T14:58:06.026Z,3.77
2019-05-06T15:01:09.738Z,3.40
2019-05-06T15:04:13.509Z,3.23
2019-05-06T15:07:17.474Z,4.23
2019-05-06T15:10:24.019Z,3.93
2019-05-06T15:13:27.234Z,3.87
2019-05-06T15:16:30.947Z,3.60
2019-05-06T15:19:34.990Z,3.43
2019-05-06T15:22:38.879Z,3.40
2019-05-06T15:25:42.626Z,3.27
2019-05-06T15:28:46.370Z,3.72
2019-05-06T15:32:02.608Z,4.17
2019-05-06T15:35:28.878Z,4.03
2019-05-06T15:38:32.641Z,4.00
2019-05-06T15:41:36.450Z,4.03
2019-05-06T15:44:42.542Z,3.83
2019-05-06T15:47:45.878Z,3.73
2019-05-06T15:50:49.915Z,3.37
2019-05-06T15:53:53.863Z,4.23
2019-05-06T15:56:58.031Z,3.90
2019-05-06T16:00:02.573Z,3.73
2019-05-06T16:03:06.470Z,4.30
2019-05-06T16:06:12.357Z,4.07
2019-05-06T16:09:15.859Z,3.80
2019-05-06T16:12:19.550Z,4.03
2019-05-06T16:15:24.886Z,4.33
2019-05-06T16:18:28.769Z,4.07
2019-05-06T16:21:33.517Z,4.30
2019-05-06T16:24:43.194Z,3.80
2019-05-06T16:27:51.280Z,3.87
2019-05-06T16:30:54.393Z,4.13
2019-05-06T16:33:58.186Z,4.27
2019-05-06T16:37:01.991Z,4.20
2019-05-06T16:40:07.886Z,3.80
2019-05-06T16:43:12.567Z,4.00
2019-05-06T16:46:16.430Z,4.23
2019-05-06T16:49:20.089Z,4.23
2019-05-06T16:52:23.802Z,4.10
2019-05-06T16:55:46.661Z,3.47
2019-05-06T16:58:53.586Z,3.40
2019-05-06T17:01:58.890Z,3.77
2019-05-06T17:05:22.487Z,3.67
2019-05-06T17:08:26.293Z,3.57
2019-05-06T17:11:33.541Z,3.70
2019-05-06T17:14:35.686Z,3.60
2019-05-06T17:17:43.598Z,3.67
2019-05-06T17:20:45.034Z,3.60
2019-05-06T17:23:48.746Z,4.10
2019-05-06T17:26:56.064Z,4.10
2019-05-06T17:30:15.318Z,4.10
2019-05-06T17:33:36.716Z,3.97
2019-05-06T17:36:42.108Z,4.20
2019-05-06T17:39:46.201Z,4.00
2019-05-06T17:42:50.210Z,3.90
2019-05-06T17:46:02.261Z,4.00
2019-05-06T17:49:08.883Z,5.13
2019-05-06T17:52:18.759Z,4.20
2019-05-06T17:55:22.558Z,4.50
2019-05-06T17:58:26.526Z,4.30
2019-05-06T18:01:37.420Z,4.10
2019-05-06T18:04:43.056Z,4.20
2019-05-06T18:07:46.611Z,4.60
2019-05-06T18:10:52.151Z,4.17
2019-05-06T18:13:55.897Z,4.00
2019-05-06T18:16:59.561Z,3.97
2019-05-06T18:20:03.545Z,3.97
2019-05-06T18:23:07.327Z,3.53
2019-05-06T18:26:11.013Z,3.37
2019-05-06T18:29:14.707Z,2.97
2019-05-06T18:32:18.410Z,3.08
2019-05-06T18:35:29.098Z,2.90
2019-05-06T18:38:33.703Z,2.77
2019-05-06T18:41:37.663Z,3.13
2019-05-06T18:44:42.276Z,3.33
2019-05-06T18:47:46.434Z,3.00
2019-05-06T18:50:51.951Z,2.50
2019-05-06T18:53:55.810Z,2.47
2019-05-06T18:57:02.032Z,3.00
2019-05-06T19:00:05.218Z,2.60
2019-05-06T19:03:08.933Z,2.50
2019-05-06T19:06:12.757Z,2.47
2019-05-06T19:09:32.637Z,2.57
2019-05-06T19:12:41.665Z,3.20
2019-05-06T19:15:47.537Z,2.57
2019-05-06T19:18:52.470Z,2.40
2019-05-06T19:21:56.264Z,2.50
2019-05-06T19:25:02.461Z,2.37
2019-05-06T19:28:05.656Z,2.40
2019-05-06T19:31:09.380Z,2.40
2019-05-06T19:34:13.134Z,2.40
2019-05-06T19:37:17.280Z,2.50
2019-05-06T19:40:23.127Z,2.50
2019-05-06T19:43:27.045Z,2.57
2019-05-06T19:46:32.734Z,2.50
2019-05-06T19:49:36.534Z,2.50
2019-05-06T19:52:42.191Z,2.80
2019-05-06T19:55:47.130Z,2.50
2019-05-06T19:58:52.552Z,2.40
2019-05-06T20:01:56.679Z,2.30
2019-05-06T20:05:08.930Z,2.87
2019-05-06T20:08:23.166Z,2.30
2019-05-06T20:11:33.979Z,2.53
2019-05-06T20:14:37.653Z,2.50
2019-05-06T20:17:42.457Z,2.77
2019-05-06T20:20:52.866Z,2.90
2019-05-06T20:23:56.766Z,2.62
2019-05-06T20:27:02.385Z,3.17
2019-05-06T20:30:06.773Z,2.70
2019-05-06T20:33:12.313Z,2.80
2019-05-06T20:36:15.869Z,2.93
2019-05-06T20:39:19.844Z,3.03
2019-05-06T20:42:23.533Z,3.00
2019-05-06T20:45:27.594Z,3.10
2019-05-06T20:48:32.523Z,3.10
2019-05-06T20:51:36.433Z,3.20
2019-05-06T20:54:42.480Z,3.30
2019-05-06T20:57:45.558Z,3.10
2019-05-06T21:00:49.269Z,3.67
2019-05-06T21:03:52.980Z,3.47
2019-05-06T21:06:56.627Z,3.33
2019-05-06T21:10:02.254Z,3.17
2019-05-06T21:13:06.037Z,3.60
2019-05-06T21:16:09.773Z,3.40
2019-05-06T21:19:13.790Z,3.20
2019-05-06T21:22:18.029Z,3.43
2019-05-06T21:25:22.588Z,3.50
2019-05-06T21:28:26.453Z,3.30
2019-05-06T21:31:32.486Z,3.50
2019-05-06T21:34:35.801Z,3.60
2019-05-06T21:37:42.077Z,3.60
2019-05-06T21:40:45.189Z,3.50
2019-05-06T21:43:50.297Z,3.70
2019-05-06T21:46:54.154Z,3.87
2019-05-06T21:49:57.906Z,4.30
2019-05-06T21:53:02.695Z,3.80
2019-05-06T21:56:06.821Z,3.60
2019-05-06T21:59:12.707Z,3.83
2019-05-06T22:02:17.637Z,3.67
2019-05-06T22:05:22.628Z,4.07
2019-05-06T22:08:26.467Z,3.57
2019-05-06T22:11:31.898Z,3.90
2019-05-06T22:14:35.513Z,4.10
2019-05-06T22:17:39.225Z,3.90
2019-05-06T22:21:02.922Z,3.83
2019-05-06T22:24:07.253Z,4.27
2019-05-06T22:27:12.322Z,3.97
2019-05-06T22:30:16.406Z,4.03
2019-05-06T22:33:22.424Z,4.27
2019-05-06T22:36:26.250Z,4.20
2019-05-06T22:39:31.682Z,3.67
2019-05-06T22:42:35.448Z,3.90
2019-05-06T22:45:39.395Z,3.57
2019-05-06T22:48:43.460Z,3.90
2019-05-06T22:51:47.237Z,4.03
2019-05-06T22:54:52.749Z,4.50
2019-05-06T22:57:56.802Z,4.13
2019-05-06T23:01:00.473Z,4.23
2019-05-06T23:04:04.618Z,3.60
2019-05-06T23:07:08.634Z,4.37
2019-05-06T23:10:12.715Z,4.30
2019-05-06T23:13:16.428Z,4.13
2019-05-06T23:16:20.322Z,4.30
2019-05-06T23:19:24.458Z,4.10
2019-05-06T23:22:28.589Z,4.73
2019-05-06T23:25:32.723Z,4.28
2019-05-06T23:28:36.454Z,4.60
2019-05-06T23:31:42.465Z,4.40
2019-05-06T23:34:45.846Z,4.63
2019-05-06T23:38:25.329Z,4.77
2019-05-06T23:42:04.998Z,4.50
2019-05-06T23:45:44.777Z,4.57
2019-05-06T23:49:24.088Z,4.30
2019-05-06T23:53:03.488Z,4.20
2019-05-06T23:56:43.794Z,4.60
2019-05-06T23:59:47.842Z,4.60
